sensor_id;sensor_type;location;lat;lon;timestamp;pressure;altitude;pressure_sealevel;temperature;humidity
57708;BME280;43540;51.690;9.562;2023-09-12T00:02:13;98943.63;;;19.12;100.00
57708;BME280;43540;51.690;9.562;2023-09-12T00:04:40;98944.75;;;19.02;100.00
57708;BME280;43540;51.690;9.562;2023-09-12T00:07:07;98931.91;;;18.85;100.00
57708;BME280;43540;51.690;9.562;2023-09-12T00:09:34;98947.78;;;18.99;100.00
57708;BME280;43540;51.690;9.562;2023-09-12T00:12:00;98950.63;;;18.98;100.00
57708;BME280;43540;51.690;9.562;2023-09-12T00:14:27;98945.91;;;18.93;100.00
57708;BME280;43540;51.690;9.562;2023-09-12T00:16:54;98943.88;;;18.95;100.00
57708;BME280;43540;51.690;9.562;2023-09-12T00:19:25;98951.44;;;18.98;100.00
57708;BME280;43540;51.690;9.562;2023-09-12T00:21:51;98951.31;;;19.07;100.00
57708;BME280;43540;51.690;9.562;2023-09-12T00:24:20;98944.75;;;19.02;100.00
57708;BME280;43540;51.690;9.562;2023-09-12T00:26:46;98940.19;;;18.96;100.00
57708;BME280;43540;51.690;9.562;2023-09-12T00:29:13;98932.66;;;19.00;100.00
57708;BME280;43540;51.690;9.562;2023-09-12T00:31:40;98913.25;;;18.99;100.00
57708;BME280;43540;51.690;9.562;2023-09-12T00:34:07;98927.94;;;18.95;100.00
57708;BME280;43540;51.690;9.562;2023-09-12T00:36:34;98931.13;;;18.91;100.00
57708;BME280;43540;51.690;9.562;2023-09-12T00:39:01;98909.66;;;18.50;100.00
57708;BME280;43540;51.690;9.562;2023-09-12T00:41:27;98914.03;;;18.57;100.00
57708;BME280;43540;51.690;9.562;2023-09-12T00:43:54;98933.69;;;18.63;100.00
57708;BME280;43540;51.690;9.562;2023-09-12T00:46:21;98927.47;;;18.70;100.00
57708;BME280;43540;51.690;9.562;2023-09-12T00:48:50;98928.16;;;18.79;100.00
57708;BME280;43540;51.690;9.562;2023-09-12T00:51:18;98928.59;;;18.83;100.00
57708;BME280;43540;51.690;9.562;2023-09-12T00:53:47;98922.47;;;18.82;100.00
57708;BME280;43540;51.690;9.562;2023-09-12T00:56:14;98934.94;;;18.82;100.00
57708;BME280;43540;51.690;9.562;2023-09-12T00:58:41;98917.81;;;18.84;100.00
57708;BME280;43540;51.690;9.562;2023-09-12T01:01:08;98931.00;;;18.99;100.00
57708;BME280;43540;51.690;9.562;2023-09-12T01:03:35;98918.53;;;18.93;100.00
57708;BME280;43540;51.690;9.562;2023-09-12T01:06:03;98932.72;;;19.07;100.00
57708;BME280;43540;51.690;9.562;2023-09-12T01:08:29;98926.41;;;19.08;100.00
57708;BME280;43540;51.690;9.562;2023-09-12T01:10:57;98929.38;;;18.98;100.00
57708;BME280;43540;51.690;9.562;2023-09-12T01:13:24;98930.59;;;18.95;100.00
57708;BME280;43540;51.690;9.562;2023-09-12T01:15:51;98898.25;;;18.70;100.00
57708;BME280;43540;51.690;9.562;2023-09-12T01:18:18;98926.66;;;18.91;100.00
57708;BME280;43540;51.690;9.562;2023-09-12T01:26:30;98929.50;;;18.90;100.00
57708;BME280;43540;51.690;9.562;2023-09-12T01:29:06;98931.34;;;18.89;100.00
57708;BME280;43540;51.690;9.562;2023-09-12T01:31:35;98923.75;;;18.86;100.00
57708;BME280;43540;51.690;9.562;2023-09-12T01:34:09;98919.25;;;18.87;100.00
57708;BME280;43540;51.690;9.562;2023-09-12T01:36:37;98907.81;;;18.86;100.00
57708;BME280;43540;51.690;9.562;2023-09-12T01:39:04;98910.59;;;18.78;100.00
57708;BME280;43540;51.690;9.562;2023-09-12T01:41:32;98913.38;;;18.70;100.00
57708;BME280;43540;51.690;9.562;2023-09-12T01:44:02;98911.94;;;18.67;100.00
57708;BME280;43540;51.690;9.562;2023-09-12T01:46:31;98920.41;;;18.63;100.00
57708;BME280;43540;51.690;9.562;2023-09-12T01:49:00;98910.56;;;18.57;100.00
57708;BME280;43540;51.690;9.562;2023-09-12T01:51:28;98913.75;;;18.52;100.00
57708;BME280;43540;51.690;9.562;2023-09-12T01:53:56;98916.72;;;18.42;100.00
57708;BME280;43540;51.690;9.562;2023-09-12T01:56:25;98918.34;;;18.43;100.00
57708;BME280;43540;51.690;9.562;2023-09-12T01:58:52;98917.09;;;18.39;100.00
57708;BME280;43540;51.690;9.562;2023-09-12T02:01:20;98917.09;;;18.39;100.00
57708;BME280;43540;51.690;9.562;2023-09-12T02:03:46;98919.09;;;18.37;100.00
57708;BME280;43540;51.690;9.562;2023-09-12T02:06:13;98919.47;;;18.34;100.00
57708;BME280;43540;51.690;9.562;2023-09-12T02:08:40;98929.28;;;18.34;100.00
57708;BME280;43540;51.690;9.562;2023-09-12T02:11:07;98924.78;;;18.34;100.00
57708;BME280;43540;51.690;9.562;2023-09-12T02:13:34;98928.44;;;18.33;100.00
57708;BME280;43540;51.690;9.562;2023-09-12T02:16:01;98933.03;;;18.25;100.00
57708;BME280;43540;51.690;9.562;2023-09-12T02:18:30;98937.53;;;18.24;100.00
57708;BME280;43540;51.690;9.562;2023-09-12T02:20:58;98929.22;;;18.12;100.00
57708;BME280;43540;51.690;9.562;2023-09-12T02:23:25;98934.63;;;18.04;100.00
57708;BME280;43540;51.690;9.562;2023-09-12T02:25:52;98944.75;;;18.01;100.00
57708;BME280;43540;51.690;9.562;2023-09-12T02:28:18;98928.69;;;17.87;100.00
57708;BME280;43540;51.690;9.562;2023-09-12T02:30:48;98946.78;;;17.99;100.00
57708;BME280;43540;51.690;9.562;2023-09-12T02:33:15;98939.63;;;17.99;100.00
57708;BME280;43540;51.690;9.562;2023-09-12T02:35:42;98945.41;;;18.03;100.00
57708;BME280;43540;51.690;9.562;2023-09-12T02:38:09;98945.22;;;18.04;100.00
57708;BME280;43540;51.690;9.562;2023-09-12T02:40:35;98953.63;;;18.08;100.00
57708;BME280;43540;51.690;9.562;2023-09-12T02:43:02;98950.97;;;18.08;100.00
57708;BME280;43540;51.690;9.562;2023-09-12T02:49:10;98946.66;;;17.92;100.00
57708;BME280;43540;51.690;9.562;2023-09-12T02:55:24;98966.63;;;18.03;100.00
57708;BME280;43540;51.690;9.562;2023-09-12T02:57:50;98965.97;;;18.01;100.00
57708;BME280;43540;51.690;9.562;2023-09-12T03:00:19;98965.34;;;17.99;100.00
57708;BME280;43540;51.690;9.562;2023-09-12T03:02:46;98922.53;;;17.72;100.00
57708;BME280;43540;51.690;9.562;2023-09-12T03:05:13;98951.97;;;17.92;100.00
57708;BME280;43540;51.690;9.562;2023-09-12T03:07:40;98951.44;;;17.97;100.00
57708;BME280;43540;51.690;9.562;2023-09-12T03:10:08;98950.63;;;18.11;100.00
57708;BME280;43540;51.690;9.562;2023-09-12T03:12:38;98948.13;;;18.09;100.00
57708;BME280;43540;51.690;9.562;2023-09-12T03:15:05;98957.09;;;18.08;100.00
57708;BME280;43540;51.690;9.562;2023-09-12T03:17:36;98949.63;;;18.12;100.00
57708;BME280;43540;51.690;9.562;2023-09-12T03:20:03;98954.09;;;18.11;100.00
57708;BME280;43540;51.690;9.562;2023-09-12T03:22:34;98946.03;;;18.19;100.00
57708;BME280;43540;51.690;9.562;2023-09-12T03:25:05;98928.31;;;18.05;100.00
57708;BME280;43540;51.690;9.562;2023-09-12T03:27:32;98928.69;;;18.02;100.00
57708;BME280;43540;51.690;9.562;2023-09-12T03:29:59;98938.34;;;18.25;100.00
57708;BME280;43540;51.690;9.562;2023-09-12T03:32:27;98948.22;;;18.31;100.00
57708;BME280;43540;51.690;9.562;2023-09-12T03:34:54;98926.91;;;18.24;100.00
57708;BME280;43540;51.690;9.562;2023-09-12T03:37:21;98939.88;;;18.34;100.00
57708;BME280;43540;51.690;9.562;2023-09-12T03:39:48;98939.16;;;18.10;100.00
57708;BME280;43540;51.690;9.562;2023-09-12T03:42:15;98943.38;;;18.19;100.00
57708;BME280;43540;51.690;9.562;2023-09-12T03:44:42;98940.56;;;18.06;100.00
57708;BME280;43540;51.690;9.562;2023-09-12T03:47:08;98954.53;;;18.15;100.00
57708;BME280;43540;51.690;9.562;2023-09-12T03:49:36;98945.84;;;18.21;100.00
57708;BME280;43540;51.690;9.562;2023-09-12T03:52:03;98949.69;;;18.18;100.00
57708;BME280;43540;51.690;9.562;2023-09-12T03:54:32;98961.13;;;18.19;100.00
57708;BME280;43540;51.690;9.562;2023-09-12T03:56:59;98976.50;;;18.24;100.00
57708;BME280;43540;51.690;9.562;2023-09-12T03:59:26;98979.06;;;18.17;100.00
57708;BME280;43540;51.690;9.562;2023-09-12T04:01:52;98958.66;;;18.17;100.00
57708;BME280;43540;51.690;9.562;2023-09-12T04:04:19;98979.69;;;18.19;100.00
57708;BME280;43540;51.690;9.562;2023-09-12T04:06:46;98970.38;;;18.38;100.00
57708;BME280;43540;51.690;9.562;2023-09-12T04:09:13;98936.13;;;18.28;100.00
57708;BME280;43540;51.690;9.562;2023-09-12T04:11:40;98967.03;;;18.51;100.00
57708;BME280;43540;51.690;9.562;2023-09-12T04:14:16;98964.53;;;18.64;100.00
57708;BME280;43540;51.690;9.562;2023-09-12T04:16:43;98961.00;;;18.57;100.00
57708;BME280;43540;51.690;9.562;2023-09-12T04:19:10;98967.03;;;18.65;100.00
57708;BME280;43540;51.690;9.562;2023-09-12T04:21:37;98968.69;;;18.66;100.00
57708;BME280;43540;51.690;9.562;2023-09-12T04:24:05;98976.91;;;18.57;100.00
57708;BME280;43540;51.690;9.562;2023-09-12T04:26:32;98959.31;;;18.56;100.00
57708;BME280;43540;51.690;9.562;2023-09-12T04:28:59;98973.03;;;18.74;100.00
57708;BME280;43540;51.690;9.562;2023-09-12T04:31:26;98957.75;;;18.76;100.00
57708;BME280;43540;51.690;9.562;2023-09-12T04:33:53;98954.34;;;18.82;100.00
57708;BME280;43540;51.690;9.562;2023-09-12T04:36:22;98959.91;;;18.87;100.00
57708;BME280;43540;51.690;9.562;2023-09-12T04:38:49;98963.81;;;18.91;100.00
57708;BME280;43540;51.690;9.562;2023-09-12T04:41:17;98958.16;;;18.94;100.00
57708;BME280;43540;51.690;9.562;2023-09-12T04:43:44;98968.41;;;18.97;100.00
57708;BME280;43540;51.690;9.562;2023-09-12T04:46:11;98950.31;;;19.08;100.00
57708;BME280;43540;51.690;9.562;2023-09-12T04:48:38;98954.94;;;19.20;100.00
57708;BME280;43540;51.690;9.562;2023-09-12T04:51:05;98958.22;;;19.22;100.00
57708;BME280;43540;51.690;9.562;2023-09-12T04:53:32;98956.31;;;19.16;100.00
57708;BME280;43540;51.690;9.562;2023-09-12T04:56:02;98951.06;;;19.23;100.00
57708;BME280;43540;51.690;9.562;2023-09-12T04:58:30;98948.28;;;19.31;100.00
57708;BME280;43540;51.690;9.562;2023-09-12T05:00:56;98910.63;;;19.27;100.00
57708;BME280;43540;51.690;9.562;2023-09-12T05:03:23;98936.53;;;19.47;100.00
57708;BME280;43540;51.690;9.562;2023-09-12T05:05:53;98947.59;;;19.50;100.00
57708;BME280;43540;51.690;9.562;2023-09-12T05:08:20;98942.44;;;19.42;100.00
57708;BME280;43540;51.690;9.562;2023-09-12T05:10:47;98954.38;;;19.03;100.00
57708;BME280;43540;51.690;9.562;2023-09-12T05:13:13;98951.19;;;19.15;100.00
57708;BME280;43540;51.690;9.562;2023-09-12T05:15:41;98964.69;;;19.13;100.00
57708;BME280;43540;51.690;9.562;2023-09-12T05:18:08;98972.06;;;19.18;100.00
57708;BME280;43540;51.690;9.562;2023-09-12T05:20:35;98968.50;;;19.11;100.00
57708;BME280;43540;51.690;9.562;2023-09-12T05:23:02;98986.88;;;18.84;100.00
57708;BME280;43540;51.690;9.562;2023-09-12T05:25:29;98996.91;;;19.10;100.00
57708;BME280;43540;51.690;9.562;2023-09-12T05:27:56;99012.41;;;18.85;100.00
57708;BME280;43540;51.690;9.562;2023-09-12T05:30:23;99020.50;;;18.98;100.00
57708;BME280;43540;51.690;9.562;2023-09-12T05:32:50;99018.16;;;19.10;100.00
57708;BME280;43540;51.690;9.562;2023-09-12T05:35:17;99018.25;;;19.17;100.00
57708;BME280;43540;51.690;9.562;2023-09-12T05:37:48;99023.78;;;19.00;100.00
57708;BME280;43540;51.690;9.562;2023-09-12T05:40:14;99020.28;;;19.15;100.00
57708;BME280;43540;51.690;9.562;2023-09-12T05:42:41;99016.88;;;19.21;100.00
57708;BME280;43540;51.690;9.562;2023-09-12T05:45:08;99015.69;;;19.09;100.00
57708;BME280;43540;51.690;9.562;2023-09-12T05:47:35;99021.47;;;19.12;100.00
57708;BME280;43540;51.690;9.562;2023-09-12T05:50:02;99023.16;;;19.20;100.00
57708;BME280;43540;51.690;9.562;2023-09-12T05:52:33;99020.97;;;19.23;100.00
57708;BME280;43540;51.690;9.562;2023-09-12T05:55:00;99023.94;;;19.35;100.00
57708;BME280;43540;51.690;9.562;2023-09-12T05:57:27;99025.44;;;19.44;100.00
57708;BME280;43540;51.690;9.562;2023-09-12T05:59:54;99024.69;;;19.50;100.00
57708;BME280;43540;51.690;9.562;2023-09-12T06:02:20;99026.16;;;19.53;100.00
57708;BME280;43540;51.690;9.562;2023-09-12T06:04:47;99030.13;;;19.57;100.00
57708;BME280;43540;51.690;9.562;2023-09-12T06:07:14;99024.22;;;19.62;100.00
57708;BME280;43540;51.690;9.562;2023-09-12T06:09:41;99021.97;;;19.65;100.00
57708;BME280;43540;51.690;9.562;2023-09-12T06:12:08;99022.09;;;19.78;100.00
57708;BME280;43540;51.690;9.562;2023-09-12T06:14:35;99014.59;;;19.88;100.00
57708;BME280;43540;51.690;9.562;2023-09-12T06:17:02;99009.41;;;19.80;100.00
57708;BME280;43540;51.690;9.562;2023-09-12T06:19:29;98991.31;;;19.97;100.00
57708;BME280;43540;51.690;9.562;2023-09-12T06:21:55;98986.88;;;20.04;100.00
57708;BME280;43540;51.690;9.562;2023-09-12T06:24:28;98990.72;;;20.02;100.00
57708;BME280;43540;51.690;9.562;2023-09-12T06:26:55;98998.91;;;20.00;100.00
57708;BME280;43540;51.690;9.562;2023-09-12T06:29:23;99010.91;;;19.89;100.00
57708;BME280;43540;51.690;9.562;2023-09-12T06:31:49;99016.56;;;19.80;100.00
57708;BME280;43540;51.690;9.562;2023-09-12T06:34:16;99018.69;;;19.63;100.00
57708;BME280;43540;51.690;9.562;2023-09-12T06:36:43;99019.66;;;19.83;100.00
57708;BME280;43540;51.690;9.562;2023-09-12T06:39:11;99022.84;;;19.94;100.00
57708;BME280;43540;51.690;9.562;2023-09-12T06:41:38;99015.97;;;19.78;100.00
57708;BME280;43540;51.690;9.562;2023-09-12T06:44:05;98972.59;;;19.77;100.00
57708;BME280;43540;51.690;9.562;2023-09-12T06:46:33;98951.59;;;19.89;100.00
57708;BME280;43540;51.690;9.562;2023-09-12T06:49:04;98970.75;;;20.12;100.00
57708;BME280;43540;51.690;9.562;2023-09-12T06:51:31;98961.34;;;20.16;100.00
57708;BME280;43540;51.690;9.562;2023-09-12T06:54:03;98947.44;;;20.14;100.00
57708;BME280;43540;51.690;9.562;2023-09-12T06:56:30;98925.97;;;20.29;100.00
57708;BME280;43540;51.690;9.562;2023-09-12T06:58:57;98917.19;;;20.29;100.00
57708;BME280;43540;51.690;9.562;2023-09-12T07:01:26;98914.75;;;20.34;100.00
57708;BME280;43540;51.690;9.562;2023-09-12T07:03:53;98907.31;;;20.16;100.00
57708;BME280;43540;51.690;9.562;2023-09-12T07:06:21;98932.53;;;20.27;100.00
57708;BME280;43540;51.690;9.562;2023-09-12T07:08:48;98937.69;;;20.35;100.00
57708;BME280;43540;51.690;9.562;2023-09-12T07:11:15;98937.66;;;20.28;100.00
57708;BME280;43540;51.690;9.562;2023-09-12T07:13:42;98953.25;;;20.31;100.00
57708;BME280;43540;51.690;9.562;2023-09-12T07:16:10;98955.00;;;20.52;100.00
57708;BME280;43540;51.690;9.562;2023-09-12T07:18:37;98949.63;;;20.45;100.00
57708;BME280;43540;51.690;9.562;2023-09-12T07:21:04;98951.72;;;20.57;100.00
57708;BME280;43540;51.690;9.562;2023-09-12T07:23:35;98954.63;;;20.62;100.00
57708;BME280;43540;51.690;9.562;2023-09-12T07:26:01;98954.81;;;20.60;100.00
57708;BME280;43540;51.690;9.562;2023-09-12T07:28:30;98957.31;;;20.68;100.00
57708;BME280;43540;51.690;9.562;2023-09-12T07:30:57;98963.69;;;20.87;100.00
57708;BME280;43540;51.690;9.562;2023-09-12T07:33:24;98974.38;;;20.94;100.00
57708;BME280;43540;51.690;9.562;2023-09-12T07:35:52;98982.63;;;21.12;100.00
57708;BME280;43540;51.690;9.562;2023-09-12T07:38:21;98972.34;;;21.16;100.00
57708;BME280;43540;51.690;9.562;2023-09-12T07:40:48;98969.94;;;21.34;100.00
57708;BME280;43540;51.690;9.562;2023-09-12T07:43:15;98964.22;;;21.50;100.00
57708;BME280;43540;51.690;9.562;2023-09-12T07:45:42;98967.47;;;21.66;100.00
57708;BME280;43540;51.690;9.562;2023-09-12T07:48:10;98973.81;;;21.84;100.00
57708;BME280;43540;51.690;9.562;2023-09-12T07:50:38;98968.25;;;21.93;100.00
57708;BME280;43540;51.690;9.562;2023-09-12T07:53:05;98980.75;;;22.05;100.00
57708;BME280;43540;51.690;9.562;2023-09-12T07:55:41;98981.19;;;22.09;100.00
57708;BME280;43540;51.690;9.562;2023-09-12T07:58:18;98982.75;;;22.30;100.00
57708;BME280;43540;51.690;9.562;2023-09-12T08:00:50;98961.25;;;22.18;100.00
57708;BME280;43540;51.690;9.562;2023-09-12T08:03:17;98980.28;;;22.35;100.00
57708;BME280;43540;51.690;9.562;2023-09-12T08:05:54;98974.16;;;22.28;100.00
57708;BME280;43540;51.690;9.562;2023-09-12T08:08:21;98975.56;;;22.37;100.00
57708;BME280;43540;51.690;9.562;2023-09-12T08:10:47;98975.13;;;22.40;100.00
57708;BME280;43540;51.690;9.562;2023-09-12T08:13:14;98966.13;;;22.28;100.00
57708;BME280;43540;51.690;9.562;2023-09-12T08:15:41;98976.22;;;22.26;100.00
57708;BME280;43540;51.690;9.562;2023-09-12T08:18:10;98975.13;;;22.40;100.00
57708;BME280;43540;51.690;9.562;2023-09-12T08:20:37;98973.09;;;22.42;100.00
57708;BME280;43540;51.690;9.562;2023-09-12T08:23:07;98951.59;;;22.24;100.00
57708;BME280;43540;51.690;9.562;2023-09-12T08:25:34;98968.56;;;22.36;100.00
57708;BME280;43540;51.690;9.562;2023-09-12T08:28:01;98975.69;;;22.49;100.00
57708;BME280;43540;51.690;9.562;2023-09-12T08:30:27;98974.03;;;22.61;100.00
57708;BME280;43540;51.690;9.562;2023-09-12T08:32:56;98982.16;;;22.79;100.00
57708;BME280;43540;51.690;9.562;2023-09-12T08:35:23;98983.97;;;22.92;100.00
57708;BME280;43540;51.690;9.562;2023-09-12T08:37:49;98984.41;;;22.89;100.00
57708;BME280;43540;51.690;9.562;2023-09-12T08:40:16;98986.19;;;22.95;100.00
57708;BME280;43540;51.690;9.562;2023-09-12T08:42:44;98984.91;;;23.04;100.00
57708;BME280;43540;51.690;9.562;2023-09-12T08:45:16;98995.00;;;23.02;100.00
57708;BME280;43540;51.690;9.562;2023-09-12T08:47:49;99012.09;;;22.94;100.00
57708;BME280;43540;51.690;9.562;2023-09-12T08:50:17;99012.50;;;22.98;100.00
57708;BME280;43540;51.690;9.562;2023-09-12T08:52:45;99018.91;;;22.90;100.00
57708;BME280;43540;51.690;9.562;2023-09-12T08:55:33;99022.59;;;22.96;100.00
57708;BME280;43540;51.690;9.562;2023-09-12T08:58:02;99014.22;;;22.79;100.00
57708;BME280;43540;51.690;9.562;2023-09-12T09:00:30;99032.63;;;23.01;100.00
57708;BME280;43540;51.690;9.562;2023-09-12T09:02:58;99042.13;;;22.96;100.00
57708;BME280;43540;51.690;9.562;2023-09-12T09:05:27;99045.56;;;23.04;100.00
57708;BME280;43540;51.690;9.562;2023-09-12T09:07:55;99049.56;;;22.88;100.00
57708;BME280;43540;51.690;9.562;2023-09-12T09:10:23;99056.72;;;22.94;100.00
57708;BME280;43540;51.690;9.562;2023-09-12T09:13:08;99058.16;;;22.96;100.00
57708;BME280;43540;51.690;9.562;2023-09-12T09:15:37;99058.56;;;22.93;100.00
57708;BME280;43540;51.690;9.562;2023-09-12T09:18:09;99067.06;;;22.77;100.00
57708;BME280;43540;51.690;9.562;2023-09-12T09:20:38;99076.06;;;22.76;100.00
57708;BME280;43540;51.690;9.562;2023-09-12T09:23:09;99074.00;;;22.91;100.00
57708;BME280;43540;51.690;9.562;2023-09-12T09:25:42;99079.31;;;23.05;100.00
57708;BME280;43540;51.690;9.562;2023-09-12T09:28:20;99079.09;;;23.06;100.00
57708;BME280;43540;51.690;9.562;2023-09-12T09:30:49;99084.34;;;23.19;100.00
57708;BME280;43540;51.690;9.562;2023-09-12T09:33:18;99084.09;;;23.27;100.00
57708;BME280;43540;51.690;9.562;2023-09-12T09:35:48;99084.22;;;23.08;100.00
57708;BME280;43540;51.690;9.562;2023-09-12T09:38:19;99087.06;;;23.13;100.00
57708;BME280;43540;51.690;9.562;2023-09-12T09:40:46;99084.38;;;23.13;100.00
57708;BME280;43540;51.690;9.562;2023-09-12T09:43:19;99076.22;;;23.01;100.00
57708;BME280;43540;51.690;9.562;2023-09-12T09:45:46;99069.22;;;23.00;100.00
57708;BME280;43540;51.690;9.562;2023-09-12T09:48:21;99061.34;;;23.12;100.00
57708;BME280;43540;51.690;9.562;2023-09-12T09:50:48;99054.47;;;23.29;100.00
57708;BME280;43540;51.690;9.562;2023-09-12T09:53:15;99010.25;;;22.95;100.00
57708;BME280;43540;51.690;9.562;2023-09-12T09:55:42;99031.69;;;23.20;100.00
57708;BME280;43540;51.690;9.562;2023-09-12T09:58:14;99049.53;;;23.33;100.00
57708;BME280;43540;51.690;9.562;2023-09-12T10:00:47;99044.44;;;23.49;100.00
57708;BME280;43540;51.690;9.562;2023-09-12T10:03:17;99043.97;;;23.66;100.00
57708;BME280;43540;51.690;9.562;2023-09-12T10:05:46;99045.41;;;23.68;100.00
57708;BME280;43540;51.690;9.562;2023-09-12T10:08:15;99036.47;;;23.99;100.00
57708;BME280;43540;51.690;9.562;2023-09-12T10:10:44;99032.44;;;23.90;100.00
57708;BME280;43540;51.690;9.562;2023-09-12T10:13:12;99039.53;;;24.21;100.00
57708;BME280;43540;51.690;9.562;2023-09-12T10:15:41;99046.34;;;24.24;100.00
57708;BME280;43540;51.690;9.562;2023-09-12T10:18:14;99042.91;;;24.17;100.00
57708;BME280;43540;51.690;9.562;2023-09-12T10:21:00;99049.13;;;24.35;100.00
57708;BME280;43540;51.690;9.562;2023-09-12T10:23:37;99031.44;;;24.28;100.00
57708;BME280;43540;51.690;9.562;2023-09-12T10:26:11;99036.38;;;24.49;100.00
57708;BME280;43540;51.690;9.562;2023-09-12T10:28:42;99027.91;;;24.34;100.00
57708;BME280;43540;51.690;9.562;2023-09-12T10:31:12;99027.09;;;24.33;100.00
57708;BME280;43540;51.690;9.562;2023-09-12T10:33:39;99030.50;;;24.40;100.00
57708;BME280;43540;51.690;9.562;2023-09-12T10:36:08;99024.03;;;24.48;100.00
57708;BME280;43540;51.690;9.562;2023-09-12T10:38:43;99032.88;;;24.49;100.00
57708;BME280;43540;51.690;9.562;2023-09-12T10:41:15;99029.78;;;24.52;100.00
57708;BME280;43540;51.690;9.562;2023-09-12T10:43:44;99042.44;;;24.45;100.00
57708;BME280;43540;51.690;9.562;2023-09-12T10:46:14;99030.81;;;24.32;100.00
57708;BME280;43540;51.690;9.562;2023-09-12T10:48:41;99034.75;;;24.66;100.00
57708;BME280;43540;51.690;9.562;2023-09-12T10:51:10;99030.25;;;24.97;100.00
57708;BME280;43540;51.690;9.562;2023-09-12T10:53:44;99024.56;;;25.05;100.00
57708;BME280;43540;51.690;9.562;2023-09-12T11:01:31;99045.94;;;24.93;100.00
57708;BME280;43540;51.690;9.562;2023-09-12T11:03:59;99046.91;;;24.69;100.00
57708;BME280;43540;51.690;9.562;2023-09-12T11:06:31;99056.28;;;24.78;100.00
57708;BME280;43540;51.690;9.562;2023-09-12T11:14:09;99069.34;;;24.50;100.00
57708;BME280;43540;51.690;9.562;2023-09-12T11:16:36;99070.25;;;24.44;100.00
57708;BME280;43540;51.690;9.562;2023-09-12T11:19:16;99077.16;;;24.08;100.00
57708;BME280;43540;51.690;9.562;2023-09-12T11:21:45;99061.66;;;23.92;100.00
57708;BME280;43540;51.690;9.562;2023-09-12T11:24:13;99063.41;;;23.79;100.00
57708;BME280;43540;51.690;9.562;2023-09-12T11:27:12;99062.06;;;23.70;100.00
57708;BME280;43540;51.690;9.562;2023-09-12T11:29:40;99060.97;;;23.78;100.00
57708;BME280;43540;51.690;9.562;2023-09-12T11:32:07;99064.38;;;23.85;100.00
57708;BME280;43540;51.690;9.562;2023-09-12T11:34:40;99052.81;;;23.91;100.00
57708;BME280;43540;51.690;9.562;2023-09-12T11:37:08;99043.31;;;24.13;100.00
57708;BME280;43540;51.690;9.562;2023-09-12T11:39:36;99034.06;;;24.16;100.00
57708;BME280;43540;51.690;9.562;2023-09-12T11:42:04;99044.72;;;23.98;100.00
57708;BME280;43540;51.690;9.562;2023-09-12T11:44:35;99027.94;;;24.09;100.00
57708;BME280;43540;51.690;9.562;2023-09-12T11:47:02;99009.41;;;24.07;100.00
57708;BME280;43540;51.690;9.562;2023-09-12T11:49:35;99024.78;;;24.37;99.28
57708;BME280;43540;51.690;9.562;2023-09-12T11:52:11;99020.69;;;24.34;100.00
57708;BME280;43540;51.690;9.562;2023-09-12T11:54:40;99025.53;;;24.44;100.00
57708;BME280;43540;51.690;9.562;2023-09-12T11:57:12;99022.44;;;24.22;100.00
57708;BME280;43540;51.690;9.562;2023-09-12T11:59:43;99018.91;;;24.47;100.00
57708;BME280;43540;51.690;9.562;2023-09-12T12:02:11;99020.31;;;24.49;97.56
57708;BME280;43540;51.690;9.562;2023-09-12T12:04:39;99023.16;;;24.54;100.00
57708;BME280;43540;51.690;9.562;2023-09-12T12:07:07;99021.66;;;24.58;96.86
57708;BME280;43540;51.690;9.562;2023-09-12T12:09:34;99021.28;;;24.73;98.00
57708;BME280;43540;51.690;9.562;2023-09-12T12:12:09;99018.44;;;24.68;97.02
57708;BME280;43540;51.690;9.562;2023-09-12T12:14:39;99019.38;;;24.92;96.51
57708;BME280;43540;51.690;9.562;2023-09-12T12:17:10;99012.94;;;25.11;100.00
57708;BME280;43540;51.690;9.562;2023-09-12T12:19:38;99009.13;;;25.19;95.73
57708;BME280;43540;51.690;9.562;2023-09-12T12:22:06;99012.81;;;25.06;100.00
57708;BME280;43540;51.690;9.562;2023-09-12T12:24:43;99011.84;;;25.31;100.00
57708;BME280;43540;51.690;9.562;2023-09-12T12:27:11;98999.28;;;25.43;95.11
57708;BME280;43540;51.690;9.562;2023-09-12T12:29:38;98985.63;;;25.44;95.09
57708;BME280;43540;51.690;9.562;2023-09-12T12:32:10;98984.34;;;25.35;92.28
57708;BME280;43540;51.690;9.562;2023-09-12T12:34:37;98989.69;;;25.35;93.77
57708;BME280;43540;51.690;9.562;2023-09-12T12:37:29;98983.19;;;25.43;99.65
57708;BME280;43540;51.690;9.562;2023-09-12T12:40:00;98979.06;;;25.40;94.78
57708;BME280;43540;51.690;9.562;2023-09-12T12:42:34;98981.09;;;25.45;85.71
57708;BME280;43540;51.690;9.562;2023-09-12T12:45:22;98979.44;;;25.44;85.65
57708;BME280;43540;51.690;9.562;2023-09-12T12:48:00;98970.75;;;25.07;88.98
57708;BME280;43540;51.690;9.562;2023-09-12T12:50:27;98970.44;;;25.27;88.06
57708;BME280;43540;51.690;9.562;2023-09-12T12:52:57;98961.00;;;25.36;92.08
57708;BME280;43540;51.690;9.562;2023-09-12T12:55:26;98959.28;;;25.53;97.69
57708;BME280;43540;51.690;9.562;2023-09-12T12:57:53;98964.88;;;25.51;99.95
57708;BME280;43540;51.690;9.562;2023-09-12T13:00:20;98959.28;;;25.76;90.10
57708;BME280;43540;51.690;9.562;2023-09-12T13:02:47;98955.91;;;25.93;88.90
57708;BME280;43540;51.690;9.562;2023-09-12T13:05:26;98962.34;;;25.80;91.45
57708;BME280;43540;51.690;9.562;2023-09-12T13:07:54;98948.22;;;25.85;86.39
57708;BME280;43540;51.690;9.562;2023-09-12T13:10:21;98946.69;;;26.00;81.61
57708;BME280;43540;51.690;9.562;2023-09-12T13:12:49;98939.69;;;25.99;83.40
57708;BME280;43540;51.690;9.562;2023-09-12T13:15:17;98937.13;;;25.93;81.88
57708;BME280;43540;51.690;9.562;2023-09-12T13:17:45;98921.47;;;25.66;80.41
57708;BME280;43540;51.690;9.562;2023-09-12T13:20:12;98928.94;;;25.88;82.98
57708;BME280;43540;51.690;9.562;2023-09-12T13:22:39;98923.34;;;25.77;80.17